PWSweather.com
Personal Weather Stations
Station Observations
LOBIOS
Galicia, LobiosES

GaliciaLobiosES

Lat: 41.895, Lon: -8.091667

Elevation: 1597

Station Type: Automática/Davis Vantage Pro2 Plus

www.meteolobios.es

High Low Average
Temperature 54.2°F12.3°C 47.4°F8.6°C 50.2°F10.1°C
Dew Point 52.5°F11.4°C 46.0°F7.8°C 48.6°F9.2°C
Winds 5.8 mph 9.3 kmh Calm Calm 1.0 mph WSW1.6 kmh WSW
Wind Gusts 9.2 mph14.8 kmh -- 3.0 mph4.8 kmh
Humidity 96% 91% 94%
Pressure 30.55 in1034.5 mb 30.50 in1032.8 mb -
Precipitation 0.01 in0.3 mm - -
Hour Temp Dew Point Humidity Winds Wind Gusts Pressure Precip Precip Rate Daily Precip Total
12:00 AM 47.5°F8.6°C 46.1°F7.8°C 95% 1.1 mph SW1.8 kmh SW 3.5 mph5.6 kmh 30.53 in1033.9 mb - 0.00 in0.0 mm 0.00 in0.0 mm
12:10 AM 47.4°F8.6°C 46.0°F7.8°C 95% 1.1 mph SW1.8 kmh SW 3.5 mph5.6 kmh 30.53 in1033.9 mb - 0.00 in0.0 mm 0.00 in0.0 mm
12:20 AM 47.5°F8.6°C 46.1°F7.8°C 95% 1.1 mph SW1.8 kmh SW 2.3 mph3.7 kmh 30.53 in1033.9 mb - 0.00 in0.0 mm 0.00 in0.0 mm
12:30 AM 47.5°F8.6°C 46.1°F7.8°C 95% 4.6 mph SW7.4 kmh SW 5.8 mph9.3 kmh 30.53 in1033.9 mb - 0.00 in0.0 mm 0.00 in0.0 mm
12:40 AM 47.7°F8.7°C 46.3°F7.9°C 95% 1.1 mph SW1.8 kmh SW 2.3 mph3.7 kmh 30.53 in1033.9 mb - 0.00 in0.0 mm 0.00 in0.0 mm
12:50 AM 47.7°F8.7°C 46.3°F7.9°C 95% 1.1 mph WSW1.8 kmh WSW 2.3 mph3.7 kmh 30.53 in1033.9 mb - 0.00 in0.0 mm 0.00 in0.0 mm
01:00 AM 47.7°F8.7°C 46.4°F8.0°C 95% Calm Calm -- 30.53 in1033.9 mb - 0.00 in0.0 mm 0.00 in0.0 mm
01:20 AM 48.0°F8.9°C 46.6°F8.1°C 95% 3.5 mph WSW5.6 kmh WSW 3.5 mph5.6 kmh 30.53 in1033.9 mb - 0.00 in0.0 mm 0.00 in0.0 mm
01:30 AM 47.9°F8.8°C 46.5°F8.1°C 95% 3.5 mph WSW5.6 kmh WSW 4.6 mph7.4 kmh 30.53 in1033.9 mb - 0.00 in0.0 mm 0.00 in0.0 mm
01:40 AM 47.8°F8.8°C 46.4°F8.0°C 95% Calm Calm -- 30.53 in1033.9 mb - 0.00 in0.0 mm 0.00 in0.0 mm
01:50 AM 47.8°F8.8°C 46.5°F8.1°C 95% 2.3 mph WSW3.7 kmh WSW 3.5 mph5.6 kmh 30.53 in1033.9 mb - 0.00 in0.0 mm 0.00 in0.0 mm
02:00 AM 47.8°F8.8°C 46.5°F8.1°C 95% 2.3 mph WSW3.7 kmh WSW 3.5 mph5.6 kmh 30.53 in1033.9 mb - 0.00 in0.0 mm 0.00 in0.0 mm
02:10 AM 47.9°F8.8°C 46.5°F8.1°C 95% 3.5 mph WSW5.6 kmh WSW 4.6 mph7.4 kmh 30.53 in1033.9 mb - 0.00 in0.0 mm 0.00 in0.0 mm
02:20 AM 47.9°F8.8°C 46.5°F8.1°C 95% 1.1 mph WSW1.8 kmh WSW 2.3 mph3.7 kmh 30.52 in1033.5 mb - 0.00 in0.0 mm 0.00 in0.0 mm
02:30 AM 47.9°F8.8°C 46.5°F8.1°C 95% 2.3 mph WSW3.7 kmh WSW 3.5 mph5.6 kmh 30.52 in1033.5 mb - 0.00 in0.0 mm 0.00 in0.0 mm
02:40 AM 48.0°F8.9°C 46.6°F8.1°C 95% 1.1 mph WSW1.8 kmh WSW 2.3 mph3.7 kmh 30.53 in1033.9 mb - 0.00 in0.0 mm 0.00 in0.0 mm
02:50 AM 48.0°F8.9°C 46.6°F8.1°C 95% 1.1 mph WSW1.8 kmh WSW 1.1 mph1.8 kmh 30.52 in1033.5 mb - 0.00 in0.0 mm 0.00 in0.0 mm
03:00 AM 47.8°F8.8°C 46.5°F8.1°C 95% 2.3 mph WSW3.7 kmh WSW 3.5 mph5.6 kmh 30.52 in1033.5 mb - 0.00 in0.0 mm 0.00 in0.0 mm
03:10 AM 47.8°F8.8°C 46.4°F8.0°C 95% 2.3 mph WSW3.7 kmh WSW 3.5 mph5.6 kmh 30.52 in1033.5 mb - 0.00 in0.0 mm 0.00 in0.0 mm
03:20 AM 47.7°F8.7°C 46.4°F8.0°C 95% 1.1 mph WSW1.8 kmh WSW 2.3 mph3.7 kmh 30.52 in1033.5 mb - 0.00 in0.0 mm 0.00 in0.0 mm
03:30 AM 47.9°F8.8°C 46.5°F8.1°C 95% 1.1 mph WSW1.8 kmh WSW 3.5 mph5.6 kmh 30.53 in1033.9 mb - 0.00 in0.0 mm 0.00 in0.0 mm
03:40 AM 47.9°F8.8°C 46.8°F8.2°C 96% 1.1 mph WSW1.8 kmh WSW 2.3 mph3.7 kmh 30.52 in1033.5 mb - 0.00 in0.0 mm 0.00 in0.0 mm
03:50 AM 48.1°F8.9°C 46.7°F8.2°C 95% 1.1 mph W1.8 kmh W 3.5 mph5.6 kmh 30.52 in1033.5 mb - 0.00 in0.0 mm 0.00 in0.0 mm
04:00 AM 48.2°F9.0°C 46.8°F8.2°C 95% 1.1 mph SW1.8 kmh SW 1.1 mph1.8 kmh 30.52 in1033.5 mb - 0.00 in0.0 mm 0.00 in0.0 mm
04:10 AM 48.2°F9.0°C 46.8°F8.2°C 95% Calm Calm -- 30.52 in1033.5 mb - 0.01 in0.3 mm 0.01 in0.3 mm
04:20 AM 48.2°F9.0°C 46.8°F8.2°C 95% Calm Calm -- 30.52 in1033.5 mb - 0.01 in0.3 mm 0.01 in0.3 mm
04:30 AM 48.2°F9.0°C 46.8°F8.2°C 95% Calm Calm 1.1 mph1.8 kmh 30.52 in1033.5 mb - 0.00 in0.0 mm 0.01 in0.3 mm
04:40 AM 48.2°F9.0°C 46.8°F8.2°C 95% Calm Calm -- 30.52 in1033.5 mb - 0.00 in0.0 mm 0.01 in0.3 mm
04:50 AM 48.2°F9.0°C 46.8°F8.2°C 95% Calm Calm -- 30.52 in1033.5 mb - 0.00 in0.0 mm 0.01 in0.3 mm
05:00 AM 48.1°F8.9°C 46.7°F8.2°C 95% Calm Calm -- 30.52 in1033.5 mb - 0.00 in0.0 mm 0.01 in0.3 mm
05:10 AM 48.1°F8.9°C 46.7°F8.2°C 95% Calm Calm -- 30.52 in1033.5 mb - 0.00 in0.0 mm 0.01 in0.3 mm
05:20 AM 48.1°F8.9°C 46.7°F8.2°C 95% 1.1 mph SW1.8 kmh SW 2.3 mph3.7 kmh 30.52 in1033.5 mb - 0.00 in0.0 mm 0.01 in0.3 mm
05:30 AM 48.1°F8.9°C 47.0°F8.3°C 96% Calm Calm -- 30.52 in1033.5 mb - 0.00 in0.0 mm 0.01 in0.3 mm
05:40 AM 48.1°F8.9°C 47.0°F8.3°C 96% Calm Calm -- 30.51 in1033.2 mb - 0.00 in0.0 mm 0.01 in0.3 mm
05:50 AM 48.1°F8.9°C 47.0°F8.3°C 96% Calm Calm -- 30.51 in1033.2 mb - 0.00 in0.0 mm 0.01 in0.3 mm
06:00 AM 48.1°F8.9°C 47.0°F8.3°C 96% Calm Calm -- 30.51 in1033.2 mb - 0.00 in0.0 mm 0.01 in0.3 mm
06:10 AM 48.0°F8.9°C 46.9°F8.3°C 96% Calm Calm -- 30.51 in1033.2 mb - 0.00 in0.0 mm 0.01 in0.3 mm
06:20 AM 47.9°F8.8°C 46.8°F8.2°C 96% 1.1 mph SW1.8 kmh SW 2.3 mph3.7 kmh 30.51 in1033.2 mb - 0.00 in0.0 mm 0.01 in0.3 mm
06:30 AM 47.9°F8.8°C 46.8°F8.2°C 96% Calm Calm -- 30.51 in1033.2 mb - 0.00 in0.0 mm 0.01 in0.3 mm
06:40 AM 47.9°F8.8°C 46.8°F8.2°C 96% Calm Calm -- 30.51 in1033.2 mb - 0.00 in0.0 mm 0.01 in0.3 mm
06:50 AM 47.8°F8.8°C 46.7°F8.2°C 96% Calm Calm -- 30.51 in1033.2 mb - 0.00 in0.0 mm 0.01 in0.3 mm
07:00 AM 47.8°F8.8°C 46.7°F8.2°C 96% Calm Calm -- 30.51 in1033.2 mb - 0.00 in0.0 mm 0.01 in0.3 mm
07:10 AM 47.8°F8.8°C 46.7°F8.2°C 96% Calm Calm -- 30.51 in1033.2 mb - 0.00 in0.0 mm 0.01 in0.3 mm
07:20 AM 47.8°F8.8°C 46.7°F8.2°C 96% Calm Calm -- 30.51 in1033.2 mb - 0.00 in0.0 mm 0.01 in0.3 mm
07:30 AM 47.8°F8.8°C 46.7°F8.2°C 96% Calm Calm -- 30.51 in1033.2 mb - 0.00 in0.0 mm 0.01 in0.3 mm
07:40 AM 47.8°F8.8°C 46.7°F8.2°C 96% Calm Calm 2.3 mph3.7 kmh 30.51 in1033.2 mb - 0.00 in0.0 mm 0.01 in0.3 mm
07:50 AM 47.9°F8.8°C 46.8°F8.2°C 96% Calm Calm -- 30.51 in1033.2 mb - 0.00 in0.0 mm 0.01 in0.3 mm
08:00 AM 47.9°F8.8°C 46.8°F8.2°C 96% Calm Calm -- 30.52 in1033.5 mb - 0.00 in0.0 mm 0.01 in0.3 mm
08:10 AM 47.9°F8.8°C 46.8°F8.2°C 96% Calm Calm -- 30.52 in1033.5 mb - 0.00 in0.0 mm 0.01 in0.3 mm
08:20 AM 47.9°F8.8°C 46.8°F8.2°C 96% Calm Calm -- 30.52 in1033.5 mb - 0.00 in0.0 mm 0.01 in0.3 mm
08:30 AM 47.9°F8.8°C 46.8°F8.2°C 96% Calm Calm -- 30.52 in1033.5 mb - 0.00 in0.0 mm 0.01 in0.3 mm
08:40 AM 47.9°F8.8°C 46.8°F8.2°C 96% Calm Calm -- 30.52 in1033.5 mb - 0.00 in0.0 mm 0.01 in0.3 mm
08:50 AM 47.9°F8.8°C 46.8°F8.2°C 96% 1.1 mph SW1.8 kmh SW 1.1 mph1.8 kmh 30.52 in1033.5 mb - 0.00 in0.0 mm 0.01 in0.3 mm
09:00 AM 48.0°F8.9°C 46.9°F8.3°C 96% 1.1 mph SW1.8 kmh SW 2.3 mph3.7 kmh 30.53 in1033.9 mb - 0.00 in0.0 mm 0.01 in0.3 mm
09:10 AM 48.1°F8.9°C 47.0°F8.3°C 96% 2.3 mph SW3.7 kmh SW 3.5 mph5.6 kmh 30.53 in1033.9 mb - 0.00 in0.0 mm 0.01 in0.3 mm
09:20 AM 48.1°F8.9°C 47.0°F8.3°C 96% 2.3 mph SW3.7 kmh SW 3.5 mph5.6 kmh 30.53 in1033.9 mb - 0.00 in0.0 mm 0.01 in0.3 mm
09:30 AM 48.2°F9.0°C 47.1°F8.4°C 96% Calm Calm 2.3 mph3.7 kmh 30.53 in1033.9 mb - 0.00 in0.0 mm 0.01 in0.3 mm
09:40 AM 48.2°F9.0°C 47.1°F8.4°C 96% Calm Calm -- 30.53 in1033.9 mb - 0.00 in0.0 mm 0.01 in0.3 mm
09:50 AM 48.2°F9.0°C 47.1°F8.4°C 96% Calm Calm -- 30.54 in1034.2 mb - 0.00 in0.0 mm 0.01 in0.3 mm
10:00 AM 48.3°F9.1°C 47.2°F8.4°C 96% Calm Calm -- 30.54 in1034.2 mb - 0.00 in0.0 mm 0.01 in0.3 mm
10:10 AM 48.4°F9.1°C 47.3°F8.5°C 96% Calm Calm -- 30.54 in1034.2 mb - 0.00 in0.0 mm 0.01 in0.3 mm
10:20 AM 48.6°F9.2°C 47.5°F8.6°C 96% Calm Calm -- 30.54 in1034.2 mb - 0.00 in0.0 mm 0.01 in0.3 mm
10:30 AM 48.8°F9.3°C 47.7°F8.7°C 96% Calm Calm -- 30.54 in1034.2 mb - 0.00 in0.0 mm 0.01 in0.3 mm
10:40 AM 49.0°F9.4°C 47.9°F8.8°C 96% Calm Calm -- 30.55 in1034.5 mb - 0.00 in0.0 mm 0.01 in0.3 mm
10:50 AM 49.0°F9.4°C 47.9°F8.8°C 96% Calm Calm -- 30.55 in1034.5 mb - 0.00 in0.0 mm 0.01 in0.3 mm
11:00 AM 49.1°F9.5°C 48.0°F8.9°C 96% Calm Calm -- 30.55 in1034.5 mb - 0.00 in0.0 mm 0.01 in0.3 mm
11:10 AM 49.9°F9.9°C 48.8°F9.3°C 96% Calm Calm -- 30.55 in1034.5 mb - 0.00 in0.0 mm 0.01 in0.3 mm
11:20 AM 50.7°F10.4°C 49.6°F9.8°C 96% Calm Calm -- 30.55 in1034.5 mb - 0.00 in0.0 mm 0.01 in0.3 mm
11:30 AM 50.9°F10.5°C 49.8°F9.9°C 96% 1.1 mph SW1.8 kmh SW 2.3 mph3.7 kmh 30.55 in1034.5 mb - 0.00 in0.0 mm 0.01 in0.3 mm
11:40 AM 50.8°F10.4°C 49.7°F9.8°C 96% 1.1 mph SW1.8 kmh SW 3.5 mph5.6 kmh 30.55 in1034.5 mb - 0.00 in0.0 mm 0.01 in0.3 mm
11:50 AM 51.1°F10.6°C 50.0°F10.0°C 96% Calm Calm -- 30.55 in1034.5 mb - 0.00 in0.0 mm 0.01 in0.3 mm
12:00 PM 51.6°F10.9°C 50.5°F10.3°C 96% 1.1 mph SW1.8 kmh SW 2.3 mph3.7 kmh 30.55 in1034.5 mb - 0.00 in0.0 mm 0.01 in0.3 mm
12:10 PM 51.9°F11.1°C 50.8°F10.4°C 96% 2.3 mph WSW3.7 kmh WSW 4.6 mph7.4 kmh 30.55 in1034.5 mb - 0.00 in0.0 mm 0.01 in0.3 mm
12:20 PM 52.3°F11.3°C 51.2°F10.7°C 96% 2.3 mph WSW3.7 kmh WSW 4.6 mph7.4 kmh 30.55 in1034.5 mb - 0.00 in0.0 mm 0.01 in0.3 mm
12:30 PM 52.3°F11.3°C 51.2°F10.7°C 96% 1.1 mph SW1.8 kmh SW 3.5 mph5.6 kmh 30.55 in1034.5 mb - 0.00 in0.0 mm 0.01 in0.3 mm
12:40 PM 52.3°F11.3°C 51.2°F10.7°C 96% 1.1 mph WSW1.8 kmh WSW 4.6 mph7.4 kmh 30.55 in1034.5 mb - 0.00 in0.0 mm 0.01 in0.3 mm
12:50 PM 52.4°F11.3°C 51.3°F10.7°C 96% 3.5 mph W5.6 kmh W 4.6 mph7.4 kmh 30.55 in1034.5 mb - 0.00 in0.0 mm 0.01 in0.3 mm
01:00 PM 52.4°F11.3°C 51.3°F10.7°C 96% 2.3 mph WSW3.7 kmh WSW 2.3 mph3.7 kmh 30.54 in1034.2 mb - 0.00 in0.0 mm 0.01 in0.3 mm
01:10 PM 52.8°F11.6°C 51.7°F10.9°C 96% 2.3 mph W3.7 kmh W 3.5 mph5.6 kmh 30.54 in1034.2 mb - 0.00 in0.0 mm 0.01 in0.3 mm
01:20 PM 53.0°F11.7°C 51.9°F11.1°C 96% 4.6 mph W7.4 kmh W 5.8 mph9.3 kmh 30.54 in1034.2 mb - 0.00 in0.0 mm 0.01 in0.3 mm
01:30 PM 53.2°F11.8°C 51.8°F11.0°C 95% 2.3 mph W3.7 kmh W 3.5 mph5.6 kmh 30.53 in1033.9 mb - 0.00 in0.0 mm 0.01 in0.3 mm
01:40 PM 53.4°F11.9°C 52.0°F11.1°C 95% 3.5 mph SW5.6 kmh SW 5.8 mph9.3 kmh 30.53 in1033.9 mb - 0.00 in0.0 mm 0.01 in0.3 mm
01:50 PM 53.9°F12.2°C 52.5°F11.4°C 95% 5.8 mph SW9.3 kmh SW 9.2 mph14.8 kmh 30.53 in1033.9 mb - 0.00 in0.0 mm 0.01 in0.3 mm
02:00 PM 53.9°F12.2°C 52.5°F11.4°C 95% 2.3 mph WNW3.7 kmh WNW 4.6 mph7.4 kmh 30.52 in1033.5 mb - 0.00 in0.0 mm 0.01 in0.3 mm
02:10 PM 54.1°F12.3°C 52.4°F11.3°C 94% Calm Calm 2.3 mph3.7 kmh 30.52 in1033.5 mb - 0.00 in0.0 mm 0.01 in0.3 mm
02:20 PM 54.0°F12.2°C 52.3°F11.3°C 94% 3.5 mph WSW5.6 kmh WSW 5.8 mph9.3 kmh 30.52 in1033.5 mb - 0.00 in0.0 mm 0.01 in0.3 mm
02:30 PM 54.2°F12.3°C 52.5°F11.4°C 94% 4.6 mph SW7.4 kmh SW 5.8 mph9.3 kmh 30.52 in1033.5 mb - 0.00 in0.0 mm 0.01 in0.3 mm
02:40 PM 54.1°F12.3°C 52.1°F11.2°C 93% 2.3 mph NW3.7 kmh NW 3.5 mph5.6 kmh 30.51 in1033.2 mb - 0.00 in0.0 mm 0.01 in0.3 mm
02:50 PM 54.1°F12.3°C 52.2°F11.2°C 93% 2.3 mph WSW3.7 kmh WSW 4.6 mph7.4 kmh 30.51 in1033.2 mb - 0.00 in0.0 mm 0.01 in0.3 mm
03:00 PM 54.2°F12.3°C 51.9°F11.1°C 92% 3.5 mph WSW5.6 kmh WSW 5.8 mph9.3 kmh 30.51 in1033.2 mb - 0.00 in0.0 mm 0.01 in0.3 mm
03:10 PM 54.1°F12.3°C 51.9°F11.1°C 92% 4.6 mph WSW7.4 kmh WSW 9.2 mph14.8 kmh 30.51 in1033.2 mb - 0.00 in0.0 mm 0.01 in0.3 mm
03:20 PM 54.2°F12.3°C 51.9°F11.1°C 92% 3.5 mph WSW5.6 kmh WSW 4.6 mph7.4 kmh 30.51 in1033.2 mb - 0.00 in0.0 mm 0.01 in0.3 mm
03:30 PM 54.1°F12.3°C 51.5°F10.8°C 91% 3.5 mph W5.6 kmh W 8.1 mph13.0 kmh 30.50 in1032.8 mb - 0.00 in0.0 mm 0.01 in0.3 mm
03:40 PM 54.0°F12.2°C 51.4°F10.8°C 91% 3.5 mph WSW5.6 kmh WSW 4.6 mph7.4 kmh 30.50 in1032.8 mb - 0.00 in0.0 mm 0.01 in0.3 mm
03:50 PM 53.9°F12.2°C 51.3°F10.7°C 91% 4.6 mph WSW7.4 kmh WSW 5.8 mph9.3 kmh 30.50 in1032.8 mb - 0.00 in0.0 mm 0.01 in0.3 mm
04:00 PM 53.7°F12.1°C 51.1°F10.6°C 91% 5.8 mph WSW9.3 kmh WSW 9.2 mph14.8 kmh 30.51 in1033.2 mb - 0.00 in0.0 mm 0.01 in0.3 mm
04:10 PM 53.6°F12.0°C 51.0°F10.6°C 91% 3.5 mph NW5.6 kmh NW 6.9 mph11.1 kmh 30.51 in1033.2 mb - 0.00 in0.0 mm 0.01 in0.3 mm
04:20 PM 53.5°F11.9°C 50.9°F10.5°C 91% 3.5 mph WSW5.6 kmh WSW 3.5 mph5.6 kmh 30.51 in1033.2 mb - 0.00 in0.0 mm 0.01 in0.3 mm
04:30 PM 53.5°F11.9°C 50.9°F10.5°C 91% 2.3 mph SW3.7 kmh SW 3.5 mph5.6 kmh 30.51 in1033.2 mb - 0.00 in0.0 mm 0.01 in0.3 mm
04:40 PM 53.4°F11.9°C 50.8°F10.4°C 91% 4.6 mph W7.4 kmh W 5.8 mph9.3 kmh 30.51 in1033.2 mb - 0.00 in0.0 mm 0.01 in0.3 mm
04:50 PM 53.2°F11.8°C 50.7°F10.4°C 91% 1.1 mph WNW1.8 kmh WNW 2.3 mph3.7 kmh 30.51 in1033.2 mb - 0.00 in0.0 mm 0.01 in0.3 mm
05:00 PM 53.1°F11.7°C 50.5°F10.3°C 91% Calm Calm 2.3 mph3.7 kmh 30.51 in1033.2 mb - 0.00 in0.0 mm 0.01 in0.3 mm
05:10 PM 53.0°F11.7°C 50.4°F10.2°C 91% 1.1 mph W1.8 kmh W 3.5 mph5.6 kmh 30.51 in1033.2 mb - 0.00 in0.0 mm 0.01 in0.3 mm
05:20 PM 52.9°F11.6°C 50.3°F10.2°C 91% 1.1 mph W1.8 kmh W 2.3 mph3.7 kmh 30.51 in1033.2 mb - 0.00 in0.0 mm 0.01 in0.3 mm
05:30 PM 52.6°F11.4°C 50.1°F10.1°C 91% 1.1 mph N1.8 kmh N -- 30.51 in1033.2 mb - 0.00 in0.0 mm 0.01 in0.3 mm
05:40 PM 52.5°F11.4°C 49.9°F9.9°C 91% Calm Calm -- 30.51 in1033.2 mb - 0.00 in0.0 mm 0.01 in0.3 mm
05:50 PM 52.4°F11.3°C 49.9°F9.9°C 91% 4.6 mph WSW7.4 kmh WSW 3.5 mph5.6 kmh 30.51 in1033.2 mb - 0.00 in0.0 mm 0.01 in0.3 mm
06:00 PM 52.3°F11.3°C 49.8°F9.9°C 91% 1.1 mph SW1.8 kmh SW 2.3 mph3.7 kmh 30.51 in1033.2 mb - 0.00 in0.0 mm 0.01 in0.3 mm
06:10 PM 52.2°F11.2°C 49.7°F9.8°C 91% 1.1 mph SW1.8 kmh SW 3.5 mph5.6 kmh 30.50 in1032.8 mb - 0.00 in0.0 mm 0.01 in0.3 mm
06:20 PM 52.1°F11.2°C 49.6°F9.8°C 91% 2.3 mph SW3.7 kmh SW 4.6 mph7.4 kmh 30.51 in1033.2 mb - 0.00 in0.0 mm 0.01 in0.3 mm
06:30 PM 52.0°F11.1°C 49.7°F9.8°C 92% 2.3 mph SW3.7 kmh SW 4.6 mph7.4 kmh 30.51 in1033.2 mb - 0.00 in0.0 mm 0.01 in0.3 mm
06:40 PM 51.9°F11.1°C 49.6°F9.8°C 92% 3.5 mph SW5.6 kmh SW 4.6 mph7.4 kmh 30.50 in1032.8 mb - 0.00 in0.0 mm 0.01 in0.3 mm
06:50 PM 51.8°F11.0°C 49.5°F9.7°C 92% 4.6 mph SW7.4 kmh SW 6.9 mph11.1 kmh 30.50 in1032.8 mb - 0.00 in0.0 mm 0.01 in0.3 mm
07:00 PM 51.6°F10.9°C 49.4°F9.7°C 92% 4.6 mph SW7.4 kmh SW 4.6 mph7.4 kmh 30.50 in1032.8 mb - 0.00 in0.0 mm 0.01 in0.3 mm
07:10 PM 51.4°F10.8°C 49.2°F9.6°C 92% 2.3 mph WSW3.7 kmh WSW 3.5 mph5.6 kmh 30.50 in1032.8 mb - 0.00 in0.0 mm 0.01 in0.3 mm
07:20 PM 51.3°F10.7°C 49.3°F9.6°C 93% 3.5 mph WSW5.6 kmh WSW 4.6 mph7.4 kmh 30.50 in1032.8 mb - 0.00 in0.0 mm 0.01 in0.3 mm
07:30 PM 51.2°F10.7°C 49.2°F9.6°C 93% 2.3 mph WSW3.7 kmh WSW 5.8 mph9.3 kmh 30.50 in1032.8 mb - 0.00 in0.0 mm 0.01 in0.3 mm
07:40 PM 51.2°F10.7°C 49.2°F9.6°C 93% 2.3 mph WSW3.7 kmh WSW 3.5 mph5.6 kmh 30.50 in1032.8 mb - 0.00 in0.0 mm 0.01 in0.3 mm
07:50 PM 51.2°F10.7°C 49.2°F9.6°C 93% 1.1 mph SW1.8 kmh SW 3.5 mph5.6 kmh 30.51 in1033.2 mb - 0.00 in0.0 mm 0.01 in0.3 mm
08:00 PM 51.2°F10.7°C 49.2°F9.6°C 93% 1.1 mph WNW1.8 kmh WNW 3.5 mph5.6 kmh 30.51 in1033.2 mb - 0.00 in0.0 mm 0.01 in0.3 mm
08:10 PM 51.1°F10.6°C 49.1°F9.5°C 93% 2.3 mph WSW3.7 kmh WSW 3.5 mph5.6 kmh 30.51 in1033.2 mb - 0.00 in0.0 mm 0.01 in0.3 mm
08:20 PM 51.1°F10.6°C 49.1°F9.5°C 93% Calm Calm 1.1 mph1.8 kmh 30.51 in1033.2 mb - 0.00 in0.0 mm 0.01 in0.3 mm
08:30 PM 51.0°F10.6°C 49.0°F9.4°C 93% Calm Calm 2.3 mph3.7 kmh 30.51 in1033.2 mb - 0.00 in0.0 mm 0.01 in0.3 mm
08:40 PM 51.0°F10.6°C 49.4°F9.7°C 94% Calm Calm -- 30.51 in1033.2 mb - 0.00 in0.0 mm 0.01 in0.3 mm
08:50 PM 51.0°F10.6°C 49.3°F9.6°C 94% Calm Calm -- 30.51 in1033.2 mb - 0.00 in0.0 mm 0.01 in0.3 mm
09:00 PM 51.0°F10.6°C 49.3°F9.6°C 94% Calm Calm -- 30.52 in1033.5 mb - 0.00 in0.0 mm 0.01 in0.3 mm
09:10 PM 50.9°F10.5°C 49.2°F9.6°C 94% 1.1 mph WSW1.8 kmh WSW 2.3 mph3.7 kmh 30.52 in1033.5 mb - 0.00 in0.0 mm 0.01 in0.3 mm
09:20 PM 50.9°F10.5°C 49.2°F9.6°C 94% Calm Calm 1.1 mph1.8 kmh 30.51 in1033.2 mb - 0.00 in0.0 mm 0.01 in0.3 mm
09:30 PM 50.8°F10.4°C 49.1°F9.5°C 94% 3.5 mph SW5.6 kmh SW 4.6 mph7.4 kmh 30.51 in1033.2 mb - 0.00 in0.0 mm 0.01 in0.3 mm
09:40 PM 50.8°F10.4°C 49.1°F9.5°C 94% 3.5 mph WSW5.6 kmh WSW 3.5 mph5.6 kmh 30.51 in1033.2 mb - 0.00 in0.0 mm 0.01 in0.3 mm
09:50 PM 50.8°F10.4°C 49.1°F9.5°C 94% 2.3 mph SW3.7 kmh SW 4.6 mph7.4 kmh 30.51 in1033.2 mb - 0.00 in0.0 mm 0.01 in0.3 mm
10:00 PM 50.7°F10.4°C 49.0°F9.4°C 94% 3.5 mph SW5.6 kmh SW 4.6 mph7.4 kmh 30.51 in1033.2 mb - 0.00 in0.0 mm 0.01 in0.3 mm
10:10 PM 50.6°F10.3°C 48.9°F9.4°C 94% 1.1 mph SW1.8 kmh SW 3.5 mph5.6 kmh 30.51 in1033.2 mb - 0.00 in0.0 mm 0.01 in0.3 mm
10:20 PM 50.6°F10.3°C 48.9°F9.4°C 94% 1.1 mph SW1.8 kmh SW 2.3 mph3.7 kmh 30.52 in1033.5 mb - 0.00 in0.0 mm 0.01 in0.3 mm
10:30 PM 50.5°F10.3°C 48.8°F9.3°C 94% 3.5 mph SW5.6 kmh SW 4.6 mph7.4 kmh 30.52 in1033.5 mb - 0.00 in0.0 mm 0.01 in0.3 mm
10:40 PM 50.6°F10.3°C 48.9°F9.4°C 94% 1.1 mph SW1.8 kmh SW 2.3 mph3.7 kmh 30.51 in1033.2 mb - 0.00 in0.0 mm 0.01 in0.3 mm
10:50 PM 50.6°F10.3°C 48.9°F9.4°C 94% Calm Calm 1.1 mph1.8 kmh 30.51 in1033.2 mb - 0.00 in0.0 mm 0.01 in0.3 mm
11:00 PM 50.6°F10.3°C 49.2°F9.6°C 95% 1.1 mph SW1.8 kmh SW 3.5 mph5.6 kmh 30.51 in1033.2 mb - 0.00 in0.0 mm 0.01 in0.3 mm
11:10 PM 50.6°F10.3°C 49.2°F9.6°C 95% Calm Calm 1.1 mph1.8 kmh 30.52 in1033.5 mb - 0.00 in0.0 mm 0.01 in0.3 mm
11:20 PM 50.6°F10.3°C 49.2°F9.6°C 95% Calm Calm 2.3 mph3.7 kmh 30.52 in1033.5 mb - 0.00 in0.0 mm 0.01 in0.3 mm
11:30 PM 50.6°F10.3°C 49.2°F9.6°C 95% Calm Calm -- 30.52 in1033.5 mb - 0.00 in0.0 mm 0.01 in0.3 mm
11:40 PM 50.6°F10.3°C 49.2°F9.6°C 95% 1.1 mph SW1.8 kmh SW 2.3 mph3.7 kmh 30.51 in1033.2 mb - 0.00 in0.0 mm 0.01 in0.3 mm
11:50 PM 50.5°F10.3°C 49.1°F9.5°C 95% Calm Calm -- 30.51 in1033.2 mb - 0.00 in0.0 mm 0.01 in0.3 mm